createdAt,value
2022-08-26T00:01:10.493Z,21.43
2022-08-26T00:03:37.201Z,21.45
2022-08-26T00:06:03.763Z,21.58
2022-08-26T00:08:30.327Z,21.53
2022-08-26T00:10:56.828Z,21.61
2022-08-26T00:13:26.373Z,21.62
2022-08-26T00:15:53.582Z,21.65
2022-08-26T00:18:22.560Z,21.84
2022-08-26T00:20:49.566Z,21.68
2022-08-26T00:23:17.726Z,21.50
2022-08-26T00:25:44.231Z,21.21
2022-08-26T00:28:11.084Z,21.08
2022-08-26T00:30:38.376Z,21.00
2022-08-26T00:33:06.174Z,20.90
2022-08-26T00:35:34.758Z,20.94
2022-08-26T00:38:02.863Z,20.97
2022-08-26T00:40:34.002Z,20.75
2022-08-26T00:43:00.905Z,20.74
2022-08-26T00:45:29.485Z,20.85
2022-08-26T00:48:01.877Z,20.84
2022-08-26T00:50:34.543Z,20.83
2022-08-26T00:53:02.266Z,20.57
2022-08-26T00:55:37.942Z,20.67
2022-08-26T00:58:05.993Z,20.72
2022-08-26T01:00:33.114Z,20.70
2022-08-26T01:03:01.856Z,20.74
2022-08-26T01:05:32.045Z,20.85
2022-08-26T01:07:58.562Z,20.61
2022-08-26T01:10:28.235Z,20.47
2022-08-26T01:13:00.836Z,20.49
2022-08-26T01:15:32.936Z,20.53
2022-08-26T01:18:00.092Z,20.62
2022-08-26T01:20:53.760Z,20.57
2022-08-26T01:23:28.205Z,20.52
2022-08-26T01:25:57.428Z,20.67
2022-08-26T01:28:28.424Z,20.75
2022-08-26T01:30:55.932Z,21.00
2022-08-26T01:33:40.025Z,21.01
2022-08-26T01:36:09.542Z,20.96
2022-08-26T01:38:36.059Z,20.80
2022-08-26T01:41:02.837Z,20.73
2022-08-26T01:43:47.469Z,20.44
2022-08-26T01:46:16.082Z,20.37
2022-08-26T01:48:43.911Z,20.51
2022-08-26T01:51:12.122Z,20.49
2022-08-26T01:53:39.857Z,20.53
2022-08-26T01:56:09.686Z,20.59
2022-08-26T01:58:42.771Z,20.87
2022-08-26T02:01:10.485Z,20.91
2022-08-26T02:03:57.043Z,20.78
2022-08-26T02:06:24.389Z,20.30
2022-08-26T02:08:54.795Z,20.15
2022-08-26T02:11:21.364Z,20.21
2022-08-26T02:13:57.897Z,20.35
2022-08-26T02:16:27.129Z,20.51
2022-08-26T02:18:54.292Z,20.66
2022-08-26T02:21:21.768Z,20.49
2022-08-26T02:23:52.371Z,20.18
2022-08-26T02:26:23.922Z,20.13
2022-08-26T02:28:59.335Z,20.16
2022-08-26T02:31:25.919Z,19.97
2022-08-26T02:33:52.623Z,19.98
2022-08-26T02:36:23.939Z,20.13
2022-08-26T02:38:55.209Z,20.03
2022-08-26T02:41:23.058Z,20.15
2022-08-26T02:43:49.743Z,20.38
2022-08-26T02:46:27.701Z,20.23
2022-08-26T02:48:56.259Z,20.03
2022-08-26T02:51:22.799Z,19.89
2022-08-26T02:53:49.890Z,19.92
2022-08-26T02:56:17.594Z,19.93
2022-08-26T02:58:44.131Z,19.66
2022-08-26T03:01:21.599Z,19.46
2022-08-26T03:03:48.364Z,19.52
2022-08-26T03:06:16.380Z,19.73
2022-08-26T03:08:43.243Z,19.69
2022-08-26T03:11:10.909Z,19.59
2022-08-26T03:13:38.439Z,19.64
2022-08-26T03:16:05.271Z,19.60
2022-08-26T03:18:31.911Z,19.84
2022-08-26T03:20:59.118Z,19.95
2022-08-26T03:23:26.033Z,19.63
2022-08-26T03:25:53.725Z,19.30
2022-08-26T03:28:20.264Z,19.46
2022-08-26T03:30:47.482Z,19.59
2022-08-26T03:33:14.565Z,19.70
2022-08-26T03:35:43.454Z,19.72
2022-08-26T03:38:10.812Z,19.67
2022-08-26T03:40:37.493Z,19.49
2022-08-26T03:43:05.462Z,19.29
2022-08-26T03:45:32.856Z,19.11
2022-08-26T03:48:00.156Z,19.24
2022-08-26T03:50:27.016Z,19.16
2022-08-26T03:52:54.651Z,18.91
2022-08-26T03:55:24.441Z,18.50
2022-08-26T03:57:51.598Z,18.78
2022-08-26T04:00:18.381Z,18.85
2022-08-26T04:02:46.728Z,18.77
2022-08-26T04:05:14.511Z,18.76
2022-08-26T04:07:42.727Z,18.84
2022-08-26T04:10:11.612Z,18.55
2022-08-26T04:12:38.650Z,18.70
2022-08-26T04:15:11.051Z,18.57
2022-08-26T04:17:37.553Z,18.52
2022-08-26T04:20:06.226Z,18.65
2022-08-26T04:22:33.924Z,18.75
2022-08-26T04:25:00.393Z,18.80
2022-08-26T04:27:27.060Z,18.61
2022-08-26T04:29:55.427Z,18.70
2022-08-26T04:32:22.559Z,18.84
2022-08-26T04:34:48.996Z,18.72
2022-08-26T04:37:16.336Z,19.00
2022-08-26T04:39:44.524Z,19.02
2022-08-26T04:42:12.550Z,18.99
2022-08-26T04:44:39.370Z,19.08
2022-08-26T04:47:06.114Z,19.20
2022-08-26T04:49:35.252Z,19.27
2022-08-26T04:52:02.556Z,19.25
2022-08-26T04:54:29.007Z,19.12
2022-08-26T04:56:55.742Z,19.03
2022-08-26T04:59:22.706Z,19.02
2022-08-26T05:01:52.811Z,19.06
2022-08-26T05:04:20.596Z,19.08
2022-08-26T05:06:48.322Z,19.23
2022-08-26T05:09:15.515Z,19.28
2022-08-26T05:11:42.041Z,19.25
2022-08-26T05:14:08.620Z,19.33
2022-08-26T05:16:35.199Z,19.17
2022-08-26T05:19:03.456Z,19.32
2022-08-26T05:21:30.156Z,19.46
2022-08-26T05:23:57.180Z,19.41
2022-08-26T05:26:27.504Z,19.30
2022-08-26T05:28:55.275Z,19.54
2022-08-26T05:31:28.231Z,19.50
2022-08-26T05:33:57.510Z,19.57
2022-08-26T05:36:27.125Z,19.76
2022-08-26T05:38:54.394Z,19.74
2022-08-26T05:41:24.755Z,20.03
2022-08-26T05:43:52.233Z,20.21
2022-08-26T05:46:18.979Z,20.26
2022-08-26T05:48:45.514Z,20.46
2022-08-26T05:51:14.121Z,20.72
2022-08-26T05:53:43.871Z,21.23
2022-08-26T05:56:24.656Z,21.30
2022-08-26T05:58:51.083Z,21.81
2022-08-26T06:01:20.258Z,22.00
2022-08-26T06:03:54.844Z,21.89
2022-08-26T06:06:29.959Z,21.61
2022-08-26T06:08:59.182Z,21.42
2022-08-26T06:11:27.552Z,22.18
2022-08-26T06:14:03.974Z,22.26
2022-08-26T06:16:31.974Z,22.08
2022-08-26T06:18:58.450Z,22.20
2022-08-26T06:21:30.133Z,22.37
2022-08-26T06:24:18.789Z,22.10
2022-08-26T06:26:50.931Z,21.74
2022-08-26T06:29:24.420Z,22.25
2022-08-26T06:31:52.006Z,22.42
2022-08-26T06:34:18.598Z,22.48
2022-08-26T06:36:45.309Z,22.75
2022-08-26T06:39:14.276Z,22.90
2022-08-26T06:41:44.883Z,23.09
2022-08-26T06:44:13.586Z,23.58
2022-08-26T06:46:41.398Z,23.60
2022-08-26T06:49:08.049Z,24.08
2022-08-26T06:51:37.300Z,24.29
2022-08-26T06:54:05.034Z,24.16
2022-08-26T06:56:39.816Z,24.31
2022-08-26T06:59:07.787Z,25.08
2022-08-26T07:01:38.061Z,24.52
2022-08-26T07:04:10.373Z,24.21
2022-08-26T07:06:40.487Z,24.27
2022-08-26T07:09:09.969Z,24.22
2022-08-26T07:11:37.940Z,24.94
2022-08-26T07:14:04.984Z,25.08
2022-08-26T07:16:31.553Z,25.23
2022-08-26T07:18:59.662Z,25.23
2022-08-26T07:21:27.837Z,25.74
2022-08-26T07:24:00.030Z,25.62
2022-08-26T07:26:29.469Z,25.76
2022-08-26T07:28:57.520Z,25.56
2022-08-26T07:31:27.801Z,26.13
2022-08-26T07:33:56.817Z,26.63
2022-08-26T07:36:24.467Z,26.89
2022-08-26T07:38:51.945Z,27.08
2022-08-26T07:41:20.441Z,26.77
2022-08-26T07:43:46.959Z,27.39
2022-08-26T07:46:18.436Z,27.58
2022-08-26T07:48:48.786Z,27.19
2022-08-26T07:51:16.731Z,26.97
2022-08-26T07:53:43.947Z,26.89
2022-08-26T07:56:14.651Z,26.76
2022-08-26T07:58:41.406Z,26.61
2022-08-26T08:01:09.185Z,26.55
2022-08-26T08:03:35.766Z,26.59
2022-08-26T08:06:04.546Z,26.60
2022-08-26T08:08:32.955Z,26.57
2022-08-26T08:10:59.690Z,26.40
2022-08-26T08:13:26.358Z,26.53
2022-08-26T08:15:52.872Z,26.49
2022-08-26T08:18:20.579Z,26.35
2022-08-26T08:20:59.238Z,26.16
2022-08-26T08:23:32.053Z,26.14
2022-08-26T08:26:03.091Z,26.16
2022-08-26T08:28:29.802Z,26.07
2022-08-26T08:30:56.423Z,26.11
2022-08-26T08:33:23.185Z,26.17
2022-08-26T08:35:49.662Z,26.20
2022-08-26T08:38:16.697Z,26.23
2022-08-26T08:40:45.492Z,26.15
2022-08-26T08:43:18.429Z,26.31
2022-08-26T08:45:49.559Z,26.41
2022-08-26T08:48:20.649Z,26.49
2022-08-26T08:50:56.543Z,26.45
2022-08-26T08:53:41.596Z,26.47
2022-08-26T08:56:45.910Z,26.39
2022-08-26T08:59:25.470Z,26.47
2022-08-26T09:01:52.586Z,26.62
2022-08-26T09:05:02.157Z,26.63
2022-08-26T09:07:41.062Z,26.90
2022-08-26T09:10:19.875Z,27.10
2022-08-26T09:12:47.659Z,27.33
2022-08-26T09:15:20.978Z,27.43
2022-08-26T09:17:59.868Z,27.33
2022-08-26T09:21:00.453Z,27.56
2022-08-26T09:23:27.121Z,27.45
2022-08-26T09:26:03.354Z,27.55
2022-08-26T09:28:31.545Z,27.55
2022-08-26T09:31:01.405Z,27.67
2022-08-26T09:33:30.768Z,27.66
2022-08-26T09:36:24.710Z,27.69
2022-08-26T09:38:52.590Z,27.63
2022-08-26T09:41:31.756Z,27.66
2022-08-26T09:44:04.436Z,27.72
2022-08-26T09:46:31.737Z,27.76
2022-08-26T09:49:47.308Z,27.62
2022-08-26T09:52:22.382Z,27.58
2022-08-26T09:55:09.570Z,27.44
2022-08-26T09:57:45.641Z,27.45
2022-08-26T10:00:55.452Z,27.44
2022-08-26T10:03:33.582Z,27.43
2022-08-26T10:06:06.751Z,27.49
2022-08-26T10:08:37.478Z,27.31
2022-08-26T10:11:12.077Z,27.41
2022-08-26T10:13:42.228Z,27.46
2022-08-26T10:16:22.377Z,27.49
2022-08-26T10:18:59.897Z,27.51
2022-08-26T10:21:30.218Z,27.39
2022-08-26T10:23:59.204Z,27.35
2022-08-26T10:26:49.014Z,27.44
2022-08-26T10:29:26.203Z,27.49
2022-08-26T10:32:03.707Z,27.61
2022-08-26T10:34:32.266Z,27.83
2022-08-26T10:37:15.066Z,27.80
2022-08-26T10:40:04.621Z,27.84
2022-08-26T10:42:45.650Z,27.60
2022-08-26T10:45:15.124Z,27.84
2022-08-26T10:47:48.905Z,28.08
2022-08-26T10:50:18.184Z,28.02
2022-08-26T10:52:51.274Z,28.06
2022-08-26T10:55:34.982Z,28.09
2022-08-26T10:58:26.583Z,28.01
2022-08-26T11:01:31.535Z,27.89
2022-08-26T11:03:58.656Z,27.71
2022-08-26T11:06:28.925Z,27.77
2022-08-26T11:08:57.427Z,27.89
2022-08-26T11:11:42.110Z,27.81
2022-08-26T11:14:29.113Z,27.85
2022-08-26T11:16:57.430Z,27.70
2022-08-26T11:19:45.336Z,27.68
2022-08-26T11:22:38.117Z,27.85
2022-08-26T11:25:15.770Z,27.76
2022-08-26T11:27:54.285Z,27.87
2022-08-26T11:30:20.674Z,27.75
2022-08-26T11:32:54.952Z,27.79
2022-08-26T11:35:21.734Z,27.79
2022-08-26T11:38:02.057Z,27.58
2022-08-26T11:40:33.809Z,27.40
2022-08-26T11:43:05.666Z,27.77
2022-08-26T11:45:37.956Z,27.80
2022-08-26T11:48:22.575Z,27.89
2022-08-26T11:50:54.443Z,27.53
2022-08-26T11:53:22.959Z,27.70
2022-08-26T11:55:50.549Z,27.64
2022-08-26T11:58:17.433Z,27.62
2022-08-26T12:00:47.624Z,27.74
2022-08-26T12:03:20.382Z,27.86
2022-08-26T12:05:52.032Z,27.78
2022-08-26T12:08:22.058Z,27.85
2022-08-26T12:10:49.025Z,27.86
2022-08-26T12:13:23.993Z,27.74
2022-08-26T12:15:55.737Z,27.81
2022-08-26T12:18:29.015Z,27.72
2022-08-26T12:20:59.231Z,27.59
2022-08-26T12:23:46.819Z,27.78
2022-08-26T12:26:24.968Z,27.65
2022-08-26T12:29:02.305Z,27.77
2022-08-26T12:31:43.663Z,27.70
2022-08-26T12:34:17.433Z,27.81
2022-08-26T12:36:46.629Z,27.87
2022-08-26T12:39:16.320Z,27.98
2022-08-26T12:41:49.365Z,27.87
2022-08-26T12:44:53.186Z,27.63
2022-08-26T12:47:42.365Z,27.88
2022-08-26T12:50:12.141Z,28.01
2022-08-26T12:52:56.821Z,28.07
2022-08-26T12:55:24.676Z,28.06
2022-08-26T12:58:29.825Z,28.12
2022-08-26T13:01:06.332Z,28.26
2022-08-26T13:03:40.189Z,28.06
2022-08-26T13:06:29.577Z,27.99
2022-08-26T13:09:00.551Z,28.01
2022-08-26T13:11:52.819Z,27.95
2022-08-26T13:14:24.167Z,27.93
2022-08-26T13:16:51.615Z,27.72
2022-08-26T13:19:21.851Z,27.62
2022-08-26T13:21:53.766Z,27.82
2022-08-26T13:24:40.600Z,27.79
2022-08-26T13:27:09.954Z,27.73
2022-08-26T13:29:36.529Z,27.68
2022-08-26T17:28:16.096Z,24.87
2022-08-26T17:30:42.801Z,24.78
2022-08-26T17:33:10.647Z,24.80
2022-08-26T17:35:50.032Z,24.84
2022-08-26T17:38:16.634Z,24.83
2022-08-26T17:40:43.123Z,24.76
2022-08-26T17:43:12.312Z,24.78
2022-08-26T17:45:43.517Z,24.70
2022-08-26T17:48:11.277Z,24.71
2022-08-26T17:50:42.370Z,24.65
2022-08-26T17:53:18.441Z,24.63
2022-08-26T17:55:45.859Z,24.69
2022-08-26T17:58:14.812Z,24.58
2022-08-26T18:00:49.401Z,24.64
2022-08-26T18:03:19.155Z,24.61
2022-08-26T18:05:51.045Z,24.58
2022-08-26T18:08:17.711Z,24.50
2022-08-26T18:10:44.910Z,24.50
2022-08-26T18:13:12.919Z,24.55
2022-08-26T18:15:40.055Z,24.50
2022-08-26T18:18:15.571Z,24.34
2022-08-26T18:20:44.159Z,24.45
2022-08-26T18:23:14.476Z,24.46
2022-08-26T18:25:43.774Z,24.23
2022-08-26T18:28:13.211Z,24.18
2022-08-26T18:30:42.539Z,24.08
2022-08-26T18:33:14.622Z,24.09
2022-08-26T18:35:45.041Z,24.10
2022-08-26T18:38:15.499Z,24.06
2022-08-26T20:30:04.844Z,22.56
2022-08-26T20:32:39.524Z,22.43
2022-08-26T20:35:40.534Z,22.52
2022-08-26T20:38:28.645Z,22.52
2022-08-26T20:41:00.484Z,22.44
2022-08-26T20:43:49.038Z,22.44
2022-08-26T20:58:13.291Z,22.24
2022-08-26T22:00:41.282Z,21.82
2022-08-26T22:03:57.087Z,21.67
2022-08-26T22:10:14.054Z,21.12
2022-08-26T22:20:25.981Z,20.71
2022-08-26T22:27:13.902Z,21.14
2022-08-26T22:33:28.019Z,21.25
2022-08-26T22:39:39.059Z,21.20
